Latest Weather Observations for Coolangatta

IDN60801

Issued at 4:32 pm EST Thursday 24 August 2017 (issued every 30 minutes, with the page automatically refreshed every 10 minutes)

About weather observations | Map of weather stations | Latest weather observations for NSW | Other Formats
Station Details ID: 040717 Name: COOLANGATTA Lat: -28.17 Lon: 153.51 Height: 4.0 m
Data from the previous 72 hours. | See also: Recent months at Coolangatta
Date/Time
EST
Temp
°C
App
Temp
°C
Dew
Point
°C
Rel
Hum
%
Delta-T
°C
Wind Press
QNH
hPa
Press
MSL
hPa
Rain since
9am
mm
Dir  Spd
km/h
Gust
km/h
Spd
kts
Gust
kts
24/04:30pm 17.9 13.8 14.8 82 1.8 NNW 30 46 16 25 1012.6 1012.6 5.8
24/04:24pm 18.3 16.0 14.6 79 2.1 W 20 46 11 25 1013.4 1013.4 4.2
24/04:07pm 21.0 18.8 16.8 77 2.6 N 24 33 13 18 1011.9 1011.9 0.0
24/04:00pm 21.1 17.9 16.3 74 2.9 N 28 35 15 19 1012.0 1012.0 0.0
24/03:30pm 21.4 18.4 15.9 71 3.3 N 26 32 14 17 1011.8 1011.8 0.0
24/03:00pm 22.2 17.9 15.5 66 4.0 N 32 37 17 20 1011.9 1011.9 0.0
24/02:30pm 22.7 18.4 14.5 60 4.8 N 30 37 16 20 1012.3 1012.3 0.0
24/02:00pm 22.8 18.0 14.6 60 4.8 N 33 41 18 22 1012.5 1012.5 0.0
24/01:30pm 22.0 16.8 14.6 63 4.4 N 35 44 19 24 1012.9 1012.9 0.0
24/01:00pm 21.8 15.9 13.7 60 4.7 N 37 43 20 23 1013.2 1013.2 0.0
24/12:30pm 24.0 20.1 13.2 50 6.3 NNW 26 35 14 19 1013.9 1013.9 0.0
24/12:00pm 23.6 19.0 12.3 49 6.4 NNW 28 39 15 21 1014.3 1014.3 0.0
24/11:30am 23.3 19.3 11.7 48 6.5 NW 24 33 13 18 1015.0 1015.0 0.0
24/11:00am 22.7 19.3 12.6 53 5.8 NW 22 32 12 17 1015.3 1015.3 0.0
24/10:30am 21.4 18.7 13.6 61 4.5 NW 20 32 11 17 1015.7 1015.7 0.0
24/10:00am 22.0 19.9 15.1 65 4.1 NW 20 26 11 14 1015.9 1015.9 0.0
24/09:30am 20.2 18.0 15.0 72 3.1 NW 20 30 11 16 1016.1 1016.1 0.0
24/09:00am 18.9 16.1 14.4 75 2.6 NNW 22 35 12 19 1016.1 1016.1 0.0
24/08:30am 19.5 17.3 15.0 75 2.6 NW 20 32 11 17 1016.4 1016.4 0.0
24/08:00am 17.9 15.7 15.0 83 1.7 NW 20 28 11 15 1016.5 1016.5 0.0
24/07:30am 18.4 14.4 15.3 82 1.8 NNW 30 43 16 23 1015.5 1015.5 0.0
24/07:00am 18.4 16.4 15.5 83 1.7 NNW 20 26 11 14 1016.1 1016.1 0.0
24/06:30am 18.1 16.8 15.7 86 1.4 NNW 17 26 9 14 1016.0 1016.0 0.0
24/06:00am 17.6 16.9 15.4 87 1.3 NNW 13 17 7 9 1015.8 1015.8 0.0
24/05:30am 17.7 16.7 15.5 87 1.3 NNW 15 20 8 11 1015.6 1015.6 0.0
24/05:00am 17.6 16.6 15.6 88 1.2 NW 15 20 8 11 1015.7 1015.7 0.0
24/04:30am 17.6 17.0 15.6 88 1.2 NW 13 20 7 11 1015.4 1015.4 0.0
24/04:00am 17.5 16.8 15.5 88 1.2 NW 13 17 7 9 1015.2 1015.2 0.0
24/03:30am 18.0 17.5 15.8 87 1.3 NW 13 19 7 10 1015.3 1015.3 0.0
24/03:00am 17.9 16.7 16.1 89 1.1 NW 17 22 9 12 1015.4 1015.4 0.0
24/02:30am 17.4 16.8 15.7 90 1.0 NW 13 17 7 9 1015.8 1015.8 0.0
24/02:00am 17.1 16.5 15.6 91 0.9 NW 13 17 7 9 1016.0 1016.0 0.0
24/01:40am 14.7 14.3 14.2 97 0.3 WNW 9 15 5 8 1016.3 1016.3 0.0
24/01:30am 15.3 15.7 14.8 97 0.3 WSW 6 9 3 5 1016.4 1016.4 0.0
24/01:00am 15.4 16.9 14.6 95 0.5 CALM 0 0 0 0 1016.7 1016.7 0.0
24/12:49am 16.1 17.9 15.5 96 0.3 CALM 0 0 0 0 1016.9 1016.9 0.0
24/12:30am 15.8 17.4 14.8 94 0.6 CALM 0 0 0 0 1017.2 1017.2 0.0
24/12:23am 16.2 18.0 15.6 96 0.3 CALM 0 6 0 3 1017.2 1017.2 0.0
24/12:00am 16.3 16.9 15.7 96 0.4 WSW 7 7 4 4 1017.4 1017.4 0.0
 
Date/Time
EST
Temp
°C
App
Temp
°C
Dew
Point
°C
Rel
Hum
%
Delta-T
°C
Wind Press
QNH
hPa
Press
MSL
hPa
Rain since
9am
mm
Dir  Spd
km/h
Gust
km/h
Spd
kts
Gust
kts
23/11:30pm 16.4 16.9 15.6 95 0.5 WSW 7 9 4 5 1017.5 1017.5 0.0
23/11:00pm 16.3 16.9 15.2 93 0.6 WSW 6 7 3 4 1017.7 1017.7 0.0
23/10:30pm 16.5 16.9 15.4 93 0.6 WSW 7 11 4 6 1017.8 1017.8 0.0
23/10:00pm 16.8 16.6 15.7 93 0.6 WSW 11 13 6 7 1017.8 1017.8 0.0
23/09:30pm 17.2 19.1 15.7 91 0.9 CALM 0 6 0 3 1017.8 1017.8 0.0
23/09:00pm 17.5 17.7 15.7 89 1.1 W 9 11 5 6 1017.9 1017.9 0.0
23/08:30pm 18.4 18.8 16.2 87 1.3 WNW 9 11 5 6 1018.0 1018.0 0.0
23/08:00pm 19.6 19.2 16.3 81 2.0 NNW 13 19 7 10 1017.8 1017.8 0.0
23/07:30pm 20.2 19.4 17.2 83 1.8 N 17 24 9 13 1017.6 1017.6 0.0
23/07:00pm 20.5 19.6 16.9 80 2.2 N 17 22 9 12 1017.6 1017.6 0.0
23/06:30pm 20.5 19.5 16.5 78 2.4 N 17 19 9 10 1017.3 1017.3 0.0
23/06:00pm 20.4 19.9 15.8 75 2.7 NNE 13 17 7 9 1017.2 1017.2 0.0
23/05:30pm 20.6 19.9 15.4 72 3.1 N 13 15 7 8 1017.2 1017.2 0.0
23/05:00pm 21.0 20.6 15.3 70 3.4 NNE 11 15 6 8 1017.0 1017.0 0.0
23/04:30pm 21.4 20.4 15.5 69 3.5 NNE 15 17 8 9 1016.6 1016.6 0.0
23/04:00pm 22.0 21.3 15.4 66 3.9 NE 13 17 7 9 1016.4 1016.4 0.0
23/03:30pm 21.9 20.3 15.0 65 4.1 NE 17 20 9 11 1016.4 1016.4 0.0
23/03:00pm 21.8 20.0 15.4 67 3.8 NE 19 22 10 12 1016.6 1016.6 0.0
23/02:30pm 21.9 20.3 16.0 69 3.6 NE 19 22 10 12 1016.8 1016.8 0.0
23/02:00pm 22.6 21.4 16.2 67 3.9 NE 17 22 9 12 1016.9 1016.9 0.0
23/01:30pm 21.9 20.3 15.0 65 4.1 NNE 17 24 9 13 1017.4 1017.4 0.0
23/01:00pm 22.6 21.1 15.4 64 4.3 NNE 17 22 9 12 1017.6 1017.6 0.0
23/12:30pm 22.0 20.6 14.6 63 4.4 NNE 15 20 8 11 1018.2 1018.2 0.0
23/12:00pm 22.4 21.2 15.0 63 4.4 NNE 15 20 8 11 1018.7 1018.7 0.0
23/11:30am 22.1 20.8 14.7 63 4.4 NNE 15 20 8 11 1019.3 1019.3 0.0
23/11:00am 21.8 20.3 14.2 62 4.4 NE 15 20 8 11 1019.7 1019.7 0.0
23/10:30am 22.1 20.2 14.2 61 4.6 NE 17 19 9 10 1019.9 1019.9 0.0
23/10:00am 20.9 21.3 13.8 64 4.1 ESE 4 9 2 5 1020.1 1020.1 0.0
23/09:30am 21.7 21.7 14.1 62 4.4 SSE 7 13 4 7 1020.1 1020.1 0.0
23/09:00am 21.2 20.4 13.9 63 4.2 SSE 11 15 6 8 1020.2 1020.2 0.0
23/08:30am 20.9 21.0 13.8 64 4.1 ESE 6 11 3 6 1020.3 1020.3 0.0
23/08:00am 19.4 19.3 13.3 68 3.5 SW 6 9 3 5 1020.2 1020.2 0.0
23/07:30am 18.2 18.0 13.5 74 2.7 SSW 7 9 4 5 1020.0 1020.0 0.0
23/07:00am 16.5 16.4 13.8 84 1.5 S 7 9 4 5 1019.8 1019.8 0.0
23/06:30am 15.7 14.9 12.8 83 1.6 S 9 11 5 6 1019.6 1019.6 0.0
23/06:00am 16.5 16.2 13.2 81 1.8 S 7 9 4 5 1019.6 1019.6 0.0
23/05:30am 17.1 17.0 13.2 78 2.2 SSW 6 7 3 4 1019.2 1019.2 0.0
23/05:00am 17.0 17.0 13.5 80 2.0 SE 6 9 3 5 1019.0 1019.0 0.0
23/04:30am 17.6 18.3 13.3 76 2.4 SW 2 6 1 3 1018.9 1018.9 0.0
23/04:00am 17.3 17.2 13.2 77 2.3 S 6 9 3 5 1018.7 1018.7 0.0
23/03:30am 17.6 16.9 13.3 76 2.4 SSW 9 13 5 7 1018.4 1018.4 0.0
23/03:00am 16.8 16.6 13.7 82 1.7 SSE 7 9 4 5 1018.6 1018.6 0.0
23/02:30am 16.8 16.6 13.7 82 1.8 SSE 7 9 4 5 1018.5 1018.5 0.0
23/02:00am 16.5 16.0 12.8 79 2.0 S 7 11 4 6 1018.7 1018.7 0.0
23/01:30am 16.8 16.1 13.3 80 2.0 SSW 9 9 5 5 1018.8 1018.8 0.0
23/01:00am 16.8 15.8 13.5 81 1.9 SSW 11 13 6 7 1019.1 1019.1 0.0
23/12:30am 15.6 15.3 13.3 86 1.3 SSW 7 17 4 9 1019.4 1019.4 0.0
23/12:00am 15.9 16.6 14.6 92 0.7 SW 4 7 2 4 1019.4 1019.4 0.0
 
Date/Time
EST
Temp
°C
App
Temp
°C
Dew
Point
°C
Rel
Hum
%
Delta-T
°C
Wind Press
QNH
hPa
Press
MSL
hPa
Rain since
9am
mm
Dir  Spd
km/h
Gust
km/h
Spd
kts
Gust
kts
22/11:30pm 16.0 16.1 14.4 90 0.9 SW 7 9 4 5 1019.6 1019.6 0.0
22/11:00pm 16.3 16.1 14.7 90 0.9 WSW 9 9 5 5 1019.7 1019.7 0.0
22/10:30pm 16.3 16.0 14.5 89 1.0 WSW 9 11 5 6 1019.6 1019.6 0.0
22/10:00pm 17.2 17.0 14.7 85 1.4 SW 9 13 5 7 1019.5 1019.5 0.0
22/09:30pm 17.7 18.0 15.0 84 1.6 SW 7 9 4 5 1019.3 1019.3 0.0
22/09:00pm 18.0 18.5 14.9 82 1.8 SSE 6 7 3 4 1019.1 1019.1 0.0
22/08:30pm 18.6 19.6 14.3 76 2.5 WNW 2 7 1 4 1018.6 1018.6 0.0
22/08:00pm 19.2 19.4 14.7 75 2.6 WNW 7 13 4 7 1018.4 1018.4 0.0
22/07:30pm 19.4 19.3 14.9 75 2.6 NW 9 13 5 7 1018.0 1018.0 0.0
22/07:00pm 20.2 18.7 16.2 78 2.4 NNW 19 26 10 14 1017.8 1017.8 0.0
22/06:30pm 20.3 19.2 16.3 78 2.4 NNW 17 24 9 13 1017.4 1017.4 0.0
22/06:00pm 20.3 18.7 16.5 79 2.3 N 20 24 11 13 1017.0 1017.0 0.0
22/05:30pm 20.8 20.2 16.6 77 2.5 N 15 20 8 11 1016.8 1016.8 0.0
22/05:00pm 21.4 19.8 16.1 72 3.2 N 19 26 10 14 1016.4 1016.4 0.0
22/04:30pm 21.9 20.0 15.7 68 3.7 N 20 26 11 14 1016.1 1016.1 0.0
22/04:00pm 22.5 20.0 15.1 63 4.4 N 22 28 12 15 1015.8 1015.8 0.0
22/03:30pm 22.9 20.4 15.2 62 4.6 N 22 28 12 15 1015.6 1015.6 0.0
22/03:00pm 23.4 20.7 15.5 61 4.7 N 24 32 13 17 1015.6 1015.6 0.0
22/02:30pm 23.0 18.8 14.6 59 5.0 N 30 37 16 20 1015.5 1015.5 0.0
22/02:00pm 23.5 20.9 13.9 55 5.6 NNW 20 32 11 17 1015.8 1015.8 0.0
22/01:30pm 23.6 20.0 12.0 48 6.6 NNW 22 32 12 17 1016.2 1016.2 0.0
22/01:00pm 24.0 20.4 12.0 47 6.8 NW 22 33 12 18 1016.3 1016.3 0.0
22/12:30pm 24.3 21.5 12.6 48 6.7 NW 19 30 10 16 1016.8 1016.8 0.0
22/12:00pm 23.6 19.7 12.0 48 6.6 NW 24 33 13 18 1017.4 1017.4 0.0
22/11:30am 23.8 20.3 12.1 48 6.6 NW 22 33 12 18 1017.8 1017.8 0.0
22/11:00am 23.2 19.8 12.5 51 6.1 NW 22 33 12 18 1018.4 1018.4 0.0
22/10:30am 21.9 16.2 11.3 51 5.9 NNW 32 43 17 23 1018.7 1018.7 0.0
22/10:00am 22.1 17.4 12.1 53 5.6 NNW 28 46 15 25 1019.1 1019.1 0.0
22/09:30am 20.9 17.2 11.5 55 5.2 N 22 30 12 16 1019.6 1019.6 0.0
22/09:00am 20.4 17.6 11.3 56 5.0 NNW 17 24 9 13 1019.7 1019.7 0.0
22/08:30am 19.8 16.7 11.6 59 4.5 NNW 19 30 10 16 1019.7 1019.7 0.0
22/08:00am 19.6 16.4 11.4 59 4.5 NW 19 28 10 15 1019.6 1019.6 0.0
22/07:30am 18.3 15.3 11.8 66 3.6 NW 19 26 10 14 1019.3 1019.3 0.0
22/07:00am 17.2 14.8 11.5 69 3.1 NW 15 22 8 12 1018.8 1018.8 0.0
22/06:30am 16.7 14.4 11.8 73 2.7 NW 15 20 8 11 1018.6 1018.6 0.0
22/06:00am 16.6 14.4 12.0 74 2.5 WNW 15 20 8 11 1018.6 1018.6 0.0
22/05:30am 16.7 14.5 12.0 74 2.6 NW 15 20 8 11 1018.3 1018.3 0.0
22/05:00am 16.7 14.2 12.3 75 2.4 WNW 17 20 9 11 1018.6 1018.6 0.0
22/04:30am 16.5 14.8 12.5 77 2.2 NW 13 20 7 11 1018.2 1018.2 0.0
22/04:00am 16.3 15.1 12.7 79 2.0 NW 11 15 6 8 1018.2 1018.2 0.0
22/03:30am 16.4 15.2 12.8 79 2.0 NW 11 15 6 8 1018.1 1018.1 0.0
22/03:00am 16.0 15.1 12.7 81 1.8 NW 9 13 5 7 1018.2 1018.2 0.0
22/02:30am 16.0 15.1 12.7 81 1.8 NW 9 15 5 8 1018.3 1018.3 0.0
22/02:00am 15.8 16.6 12.5 81 1.8 CALM 0 0 0 0 1018.4 1018.4 0.0
22/01:30am 16.1 16.9 12.5 79 2.0 CALM 0 0 0 0 1018.9 1018.9 0.0
22/01:00am 16.3 15.8 12.5 78 2.1 W 7 9 4 5 1018.8 1018.8 0.0
22/12:30am 16.1 14.9 12.7 80 1.9 W 11 13 6 7 1018.9 1018.9 0.0
22/12:00am 16.7 16.1 12.3 75 2.4 NW 7 9 4 5 1018.4 1018.4 0.0
 
Date/Time
EST
Temp
°C
App
Temp
°C
Dew
Point
°C
Rel
Hum
%
Delta-T
°C
Wind Press
QNH
hPa
Press
MSL
hPa
Rain since
9am
mm
Dir  Spd
km/h
Gust
km/h
Spd
kts
Gust
kts
21/11:30pm 17.2 15.1 12.3 73 2.7 WNW 15 20 8 11 1019.4 1019.4 0.0
21/11:00pm 15.6 15.6 12.4 81 1.7 SW 4 7 2 4 1019.4 1019.4 0.0
21/10:30pm 15.7 15.3 12.5 81 1.8 SW 6 7 3 4 1019.4 1019.4 0.0
21/10:00pm 15.4 16.1 12.2 81 1.7 CALM 0 0 0 0 1019.0 1019.0 0.0
21/09:30pm 15.9 16.2 12.1 78 2.1 W 2 7 1 4 1019.2 1019.2 0.0
21/09:00pm 16.3 15.8 12.1 76 2.3 W 6 7 3 4 1019.3 1019.3 0.0
21/08:30pm 16.6 15.6 12.4 76 2.3 WSW 9 13 5 7 1019.5 1019.5 0.0
21/08:00pm 17.1 16.0 12.0 72 2.8 W 9 13 5 7 1019.2 1019.2 0.0
21/07:30pm 18.4 14.8 11.9 66 3.6 NNW 22 30 12 16 1019.1 1019.1 0.0
21/07:00pm 18.7 15.1 12.0 65 3.7 N 22 28 12 15 1018.5 1018.5 0.0
21/06:30pm 18.4 15.4 11.9 66 3.6 N 19 26 10 14 1018.5 1018.5 0.0
21/06:00pm 18.5 14.9 12.0 66 3.6 N 22 28 12 15 1018.3 1018.3 0.0
21/05:30pm 18.5 15.0 12.3 67 3.4 N 22 30 12 16 1018.3 1018.3 0.0
21/05:00pm 18.6 15.1 12.1 66 3.6 N 22 30 12 16 1018.0 1018.0 0.0

Other Formats:

Comma delimited format used in spreadsheet applications
http://www.bom.gov.au/fwo/IDN60801/IDN60801.94592.axf

JavaScript Object Notation format (JSON) in row-major order
http://www.bom.gov.au/fwo/IDN60801/IDN60801.94592.json